sensor_id;sensor_type;location;lat;lon;timestamp;P1;durP1;ratioP1;P2;durP2;ratioP2
5195;SDS011;2617;51.006;12.436;2023-07-13T00:01:26;3.83;;;1.50;;
5195;SDS011;2617;51.006;12.436;2023-07-13T00:06:28;2.63;;;1.57;;
5195;SDS011;2617;51.006;12.436;2023-07-13T00:11:30;7.83;;;1.60;;
5195;SDS011;2617;51.006;12.436;2023-07-13T00:16:33;4.93;;;2.03;;
5195;SDS011;2617;51.006;12.436;2023-07-13T00:21:33;2.47;;;1.60;;
5195;SDS011;2617;51.006;12.436;2023-07-13T00:26:36;2.97;;;1.40;;
5195;SDS011;2617;51.006;12.436;2023-07-13T00:31:37;2.07;;;1.17;;
5195;SDS011;2617;51.006;12.436;2023-07-13T00:36:39;3.57;;;1.20;;
5195;SDS011;2617;51.006;12.436;2023-07-13T00:41:42;1.40;;;1.30;;
5195;SDS011;2617;51.006;12.436;2023-07-13T00:46:43;3.90;;;1.70;;
5195;SDS011;2617;51.006;12.436;2023-07-13T00:51:49;3.27;;;1.60;;
5195;SDS011;2617;51.006;12.436;2023-07-13T00:56:51;2.30;;;1.60;;
5195;SDS011;2617;51.006;12.436;2023-07-13T01:01:52;4.30;;;1.93;;
5195;SDS011;2617;51.006;12.436;2023-07-13T01:06:54;5.90;;;2.20;;
5195;SDS011;2617;51.006;12.436;2023-07-13T01:11:56;5.37;;;2.00;;
5195;SDS011;2617;51.006;12.436;2023-07-13T01:16:57;2.80;;;1.70;;
5195;SDS011;2617;51.006;12.436;2023-07-13T01:22:00;4.30;;;2.20;;
5195;SDS011;2617;51.006;12.436;2023-07-13T01:27:03;5.85;;;2.62;;
5195;SDS011;2617;51.006;12.436;2023-07-13T01:32:05;1.77;;;1.67;;
5195;SDS011;2617;51.006;12.436;2023-07-13T01:37:08;2.17;;;1.80;;
5195;SDS011;2617;51.006;12.436;2023-07-13T01:42:09;2.50;;;2.00;;
5195;SDS011;2617;51.006;12.436;2023-07-13T01:47:11;8.27;;;1.85;;
5195;SDS011;2617;51.006;12.436;2023-07-13T01:52:13;4.10;;;1.70;;
5195;SDS011;2617;51.006;12.436;2023-07-13T01:57:15;8.47;;;2.00;;
5195;SDS011;2617;51.006;12.436;2023-07-13T02:02:17;1.67;;;1.35;;
5195;SDS011;2617;51.006;12.436;2023-07-13T02:07:19;5.40;;;1.70;;
5195;SDS011;2617;51.006;12.436;2023-07-13T02:12:20;2.30;;;1.42;;
5195;SDS011;2617;51.006;12.436;2023-07-13T02:17:22;2.60;;;1.50;;
5195;SDS011;2617;51.006;12.436;2023-07-13T02:22:24;3.90;;;1.77;;
5195;SDS011;2617;51.006;12.436;2023-07-13T02:27:26;5.47;;;2.10;;
5195;SDS011;2617;51.006;12.436;2023-07-13T02:32:27;2.00;;;1.70;;
5195;SDS011;2617;51.006;12.436;2023-07-13T02:37:29;2.87;;;1.77;;
5195;SDS011;2617;51.006;12.436;2023-07-13T02:42:31;5.40;;;1.90;;
5195;SDS011;2617;51.006;12.436;2023-07-13T02:47:35;2.15;;;1.62;;
5195;SDS011;2617;51.006;12.436;2023-07-13T02:52:35;3.60;;;1.73;;
5195;SDS011;2617;51.006;12.436;2023-07-13T02:57:37;2.43;;;2.10;;
5195;SDS011;2617;51.006;12.436;2023-07-13T03:02:40;3.73;;;2.00;;
5195;SDS011;2617;51.006;12.436;2023-07-13T03:07:42;8.23;;;2.58;;
5195;SDS011;2617;51.006;12.436;2023-07-13T03:12:44;4.37;;;1.93;;
5195;SDS011;2617;51.006;12.436;2023-07-13T03:17:46;4.82;;;1.83;;
5195;SDS011;2617;51.006;12.436;2023-07-13T03:22:47;3.35;;;1.80;;
5195;SDS011;2617;51.006;12.436;2023-07-13T03:27:49;2.63;;;1.80;;
5195;SDS011;2617;51.006;12.436;2023-07-13T03:32:51;2.05;;;1.62;;
5195;SDS011;2617;51.006;12.436;2023-07-13T03:37:52;4.60;;;1.70;;
5195;SDS011;2617;51.006;12.436;2023-07-13T03:42:54;3.47;;;1.90;;
5195;SDS011;2617;51.006;12.436;2023-07-13T03:47:56;5.50;;;2.03;;
5195;SDS011;2617;51.006;12.436;2023-07-13T03:52:59;5.60;;;1.90;;
5195;SDS011;2617;51.006;12.436;2023-07-13T03:58:23;4.23;;;1.60;;
5195;SDS011;2617;51.006;12.436;2023-07-13T04:03:08;2.45;;;1.67;;
5195;SDS011;2617;51.006;12.436;2023-07-13T04:08:10;2.90;;;1.90;;
5195;SDS011;2617;51.006;12.436;2023-07-13T04:13:12;4.73;;;2.33;;
5195;SDS011;2617;51.006;12.436;2023-07-13T04:18:14;2.85;;;1.92;;
5195;SDS011;2617;51.006;12.436;2023-07-13T04:23:16;5.37;;;1.47;;
5195;SDS011;2617;51.006;12.436;2023-07-13T04:28:18;2.45;;;1.90;;
5195;SDS011;2617;51.006;12.436;2023-07-13T04:33:21;1.87;;;1.77;;
5195;SDS011;2617;51.006;12.436;2023-07-13T04:38:24;4.83;;;2.57;;
5195;SDS011;2617;51.006;12.436;2023-07-13T04:43:26;3.00;;;2.20;;
5195;SDS011;2617;51.006;12.436;2023-07-13T04:48:28;6.03;;;1.90;;
5195;SDS011;2617;51.006;12.436;2023-07-13T04:53:30;1.93;;;1.70;;
5195;SDS011;2617;51.006;12.436;2023-07-13T04:58:33;2.90;;;2.20;;
5195;SDS011;2617;51.006;12.436;2023-07-13T05:03:34;2.13;;;1.77;;
5195;SDS011;2617;51.006;12.436;2023-07-13T05:08:35;3.70;;;1.87;;
5195;SDS011;2617;51.006;12.436;2023-07-13T05:13:37;2.20;;;2.00;;
5195;SDS011;2617;51.006;12.436;2023-07-13T05:18:39;8.33;;;3.03;;
5195;SDS011;2617;51.006;12.436;2023-07-13T05:23:41;3.20;;;2.43;;
5195;SDS011;2617;51.006;12.436;2023-07-13T05:28:44;4.50;;;2.33;;
5195;SDS011;2617;51.006;12.436;2023-07-13T05:33:45;2.20;;;2.00;;
5195;SDS011;2617;51.006;12.436;2023-07-13T05:38:47;7.47;;;2.23;;
5195;SDS011;2617;51.006;12.436;2023-07-13T05:43:49;7.37;;;2.30;;
5195;SDS011;2617;51.006;12.436;2023-07-13T05:48:51;3.40;;;2.03;;
5195;SDS011;2617;51.006;12.436;2023-07-13T05:53:52;7.10;;;2.27;;
5195;SDS011;2617;51.006;12.436;2023-07-13T05:58:54;5.07;;;2.10;;
5195;SDS011;2617;51.006;12.436;2023-07-13T06:03:56;4.00;;;1.97;;
5195;SDS011;2617;51.006;12.436;2023-07-13T06:08:58;3.20;;;1.90;;
5195;SDS011;2617;51.006;12.436;2023-07-13T06:13:59;4.93;;;2.57;;
5195;SDS011;2617;51.006;12.436;2023-07-13T06:19:01;6.30;;;1.90;;
5195;SDS011;2617;51.006;12.436;2023-07-13T06:24:03;4.67;;;2.20;;
5195;SDS011;2617;51.006;12.436;2023-07-13T06:29:06;7.73;;;2.50;;
5195;SDS011;2617;51.006;12.436;2023-07-13T06:34:08;4.00;;;2.00;;
5195;SDS011;2617;51.006;12.436;2023-07-13T06:39:10;7.37;;;2.33;;
5195;SDS011;2617;51.006;12.436;2023-07-13T06:44:12;6.93;;;1.77;;
5195;SDS011;2617;51.006;12.436;2023-07-13T06:49:14;6.80;;;1.80;;
5195;SDS011;2617;51.006;12.436;2023-07-13T06:54:15;1.80;;;1.70;;
5195;SDS011;2617;51.006;12.436;2023-07-13T06:59:17;3.58;;;1.90;;
5195;SDS011;2617;51.006;12.436;2023-07-13T07:04:20;4.65;;;1.70;;
5195;SDS011;2617;51.006;12.436;2023-07-13T07:09:22;2.97;;;1.62;;
5195;SDS011;2617;51.006;12.436;2023-07-13T07:14:24;4.43;;;2.65;;
5195;SDS011;2617;51.006;12.436;2023-07-13T07:19:27;3.93;;;1.87;;
5195;SDS011;2617;51.006;12.436;2023-07-13T07:24:27;3.57;;;1.73;;
5195;SDS011;2617;51.006;12.436;2023-07-13T07:29:29;5.80;;;1.50;;
5195;SDS011;2617;51.006;12.436;2023-07-13T07:34:31;5.90;;;1.83;;
5195;SDS011;2617;51.006;12.436;2023-07-13T07:39:32;3.00;;;1.77;;
5195;SDS011;2617;51.006;12.436;2023-07-13T07:44:35;1.57;;;1.47;;
5195;SDS011;2617;51.006;12.436;2023-07-13T07:49:37;3.22;;;1.55;;
5195;SDS011;2617;51.006;12.436;2023-07-13T07:54:39;4.23;;;1.17;;
5195;SDS011;2617;51.006;12.436;2023-07-13T07:59:41;1.90;;;1.73;;
5195;SDS011;2617;51.006;12.436;2023-07-13T08:04:43;2.67;;;1.40;;
5195;SDS011;2617;51.006;12.436;2023-07-13T08:09:45;3.37;;;1.62;;
5195;SDS011;2617;51.006;12.436;2023-07-13T08:14:49;1.70;;;1.58;;
5195;SDS011;2617;51.006;12.436;2023-07-13T08:19:54;4.43;;;1.73;;
5195;SDS011;2617;51.006;12.436;2023-07-13T08:24:56;10.13;;;2.13;;
5195;SDS011;2617;51.006;12.436;2023-07-13T08:29:58;2.40;;;1.40;;
5195;SDS011;2617;51.006;12.436;2023-07-13T08:35:00;4.60;;;1.80;;
5195;SDS011;2617;51.006;12.436;2023-07-13T08:40:02;2.20;;;1.57;;
5195;SDS011;2617;51.006;12.436;2023-07-13T08:50:15;3.57;;;1.40;;
5195;SDS011;2617;51.006;12.436;2023-07-13T08:55:16;2.67;;;1.50;;
5195;SDS011;2617;51.006;12.436;2023-07-13T09:00:18;5.45;;;2.47;;
5195;SDS011;2617;51.006;12.436;2023-07-13T09:05:25;3.12;;;1.98;;
5195;SDS011;2617;51.006;12.436;2023-07-13T09:10:28;3.87;;;1.30;;
5195;SDS011;2617;51.006;12.436;2023-07-13T09:15:31;1.97;;;1.20;;
5195;SDS011;2617;51.006;12.436;2023-07-13T09:20:35;4.67;;;1.20;;
5195;SDS011;2617;51.006;12.436;2023-07-13T09:25:36;7.33;;;1.40;;
5195;SDS011;2617;51.006;12.436;2023-07-13T09:30:42;4.50;;;1.80;;
5195;SDS011;2617;51.006;12.436;2023-07-13T09:35:41;2.53;;;1.37;;
5195;SDS011;2617;51.006;12.436;2023-07-13T09:40:50;2.63;;;1.40;;
5195;SDS011;2617;51.006;12.436;2023-07-13T09:46:04;2.03;;;1.40;;
5195;SDS011;2617;51.006;12.436;2023-07-13T09:51:07;3.57;;;1.27;;
5195;SDS011;2617;51.006;12.436;2023-07-13T09:56:19;3.08;;;1.23;;
5195;SDS011;2617;51.006;12.436;2023-07-13T10:01:17;2.00;;;1.27;;
5195;SDS011;2617;51.006;12.436;2023-07-13T10:06:20;2.05;;;1.27;;
5195;SDS011;2617;51.006;12.436;2023-07-13T10:11:22;3.00;;;1.80;;
5195;SDS011;2617;51.006;12.436;2023-07-13T10:16:25;3.05;;;1.70;;
5195;SDS011;2617;51.006;12.436;2023-07-13T10:21:28;2.03;;;1.43;;
5195;SDS011;2617;51.006;12.436;2023-07-13T10:26:38;5.33;;;1.63;;
5195;SDS011;2617;51.006;12.436;2023-07-13T10:31:40;1.93;;;1.30;;
5195;SDS011;2617;51.006;12.436;2023-07-13T10:36:44;6.70;;;2.03;;
5195;SDS011;2617;51.006;12.436;2023-07-13T10:41:46;2.03;;;1.45;;
5195;SDS011;2617;51.006;12.436;2023-07-13T10:46:47;4.40;;;1.73;;
5195;SDS011;2617;51.006;12.436;2023-07-13T10:51:50;5.18;;;1.20;;
5195;SDS011;2617;51.006;12.436;2023-07-13T10:56:53;4.07;;;1.47;;
5195;SDS011;2617;51.006;12.436;2023-07-13T11:01:55;2.40;;;1.30;;
5195;SDS011;2617;51.006;12.436;2023-07-13T11:06:58;1.67;;;1.40;;
5195;SDS011;2617;51.006;12.436;2023-07-13T11:12:00;1.40;;;1.00;;
5195;SDS011;2617;51.006;12.436;2023-07-13T11:27:44;2.87;;;1.20;;
5195;SDS011;2617;51.006;12.436;2023-07-13T11:32:44;1.77;;;1.40;;
5195;SDS011;2617;51.006;12.436;2023-07-13T11:37:46;1.17;;;1.07;;
5195;SDS011;2617;51.006;12.436;2023-07-13T11:42:48;1.40;;;1.00;;
5195;SDS011;2617;51.006;12.436;2023-07-13T11:47:50;1.43;;;1.33;;
5195;SDS011;2617;51.006;12.436;2023-07-13T11:52:52;2.53;;;1.10;;
5195;SDS011;2617;51.006;12.436;2023-07-13T11:57:56;3.47;;;1.15;;
5195;SDS011;2617;51.006;12.436;2023-07-13T12:02:56;2.00;;;0.93;;
5195;SDS011;2617;51.006;12.436;2023-07-13T12:07:58;0.90;;;0.90;;
5195;SDS011;2617;51.006;12.436;2023-07-13T12:13:01;0.70;;;0.70;;
5195;SDS011;2617;51.006;12.436;2023-07-13T12:18:02;1.50;;;1.00;;
5195;SDS011;2617;51.006;12.436;2023-07-13T12:23:05;2.40;;;0.80;;
5195;SDS011;2617;51.006;12.436;2023-07-13T12:33:20;1.30;;;1.20;;
5195;SDS011;2617;51.006;12.436;2023-07-13T12:38:24;0.90;;;0.90;;
5195;SDS011;2617;51.006;12.436;2023-07-13T12:43:23;1.80;;;0.70;;
5195;SDS011;2617;51.006;12.436;2023-07-13T12:48:25;3.30;;;0.90;;
5195;SDS011;2617;51.006;12.436;2023-07-13T12:53:28;1.67;;;1.08;;
5195;SDS011;2617;51.006;12.436;2023-07-13T12:58:36;3.50;;;0.90;;
5195;SDS011;2617;51.006;12.436;2023-07-13T13:03:46;1.12;;;0.70;;
5195;SDS011;2617;51.006;12.436;2023-07-13T13:08:48;3.03;;;0.80;;
5195;SDS011;2617;51.006;12.436;2023-07-13T13:13:49;1.83;;;1.20;;
5195;SDS011;2617;51.006;12.436;2023-07-13T13:18:52;1.03;;;0.80;;
5195;SDS011;2617;51.006;12.436;2023-07-13T13:23:53;1.40;;;0.70;;
5195;SDS011;2617;51.006;12.436;2023-07-13T13:28:54;12.60;;;0.70;;
5195;SDS011;2617;51.006;12.436;2023-07-13T13:33:56;0.90;;;0.70;;
5195;SDS011;2617;51.006;12.436;2023-07-13T13:38:58;6.03;;;1.10;;
5195;SDS011;2617;51.006;12.436;2023-07-13T13:44:01;1.53;;;0.80;;
5195;SDS011;2617;51.006;12.436;2023-07-13T13:49:02;2.00;;;0.90;;
5195;SDS011;2617;51.006;12.436;2023-07-13T13:54:04;2.10;;;0.60;;
5195;SDS011;2617;51.006;12.436;2023-07-13T13:59:06;1.93;;;0.80;;
5195;SDS011;2617;51.006;12.436;2023-07-13T14:04:10;2.00;;;0.93;;
5195;SDS011;2617;51.006;12.436;2023-07-13T14:09:11;1.03;;;0.93;;
5195;SDS011;2617;51.006;12.436;2023-07-13T14:14:16;1.27;;;0.68;;
5195;SDS011;2617;51.006;12.436;2023-07-13T14:19:17;0.70;;;0.67;;
5195;SDS011;2617;51.006;12.436;2023-07-13T14:24:20;1.10;;;0.70;;
5195;SDS011;2617;51.006;12.436;2023-07-13T14:29:21;2.30;;;1.10;;
5195;SDS011;2617;51.006;12.436;2023-07-13T14:34:23;2.03;;;0.80;;
5195;SDS011;2617;51.006;12.436;2023-07-13T14:39:26;2.10;;;1.10;;
5195;SDS011;2617;51.006;12.436;2023-07-13T14:44:29;0.97;;;0.90;;
5195;SDS011;2617;51.006;12.436;2023-07-13T14:49:32;1.20;;;1.10;;
5195;SDS011;2617;51.006;12.436;2023-07-13T14:54:35;1.53;;;0.73;;
5195;SDS011;2617;51.006;12.436;2023-07-13T14:59:37;1.77;;;0.77;;
5195;SDS011;2617;51.006;12.436;2023-07-13T15:04:39;1.00;;;0.70;;
5195;SDS011;2617;51.006;12.436;2023-07-13T15:09:41;1.67;;;1.00;;
5195;SDS011;2617;51.006;12.436;2023-07-13T15:14:44;2.95;;;1.05;;
5195;SDS011;2617;51.006;12.436;2023-07-13T15:19:45;1.43;;;1.00;;
5195;SDS011;2617;51.006;12.436;2023-07-13T15:24:47;1.40;;;0.70;;
5195;SDS011;2617;51.006;12.436;2023-07-13T15:29:49;1.87;;;1.20;;
5195;SDS011;2617;51.006;12.436;2023-07-13T15:34:51;0.90;;;0.90;;
5195;SDS011;2617;51.006;12.436;2023-07-13T15:39:53;1.70;;;0.80;;
5195;SDS011;2617;51.006;12.436;2023-07-13T15:44:55;1.97;;;0.80;;
5195;SDS011;2617;51.006;12.436;2023-07-13T15:49:56;3.70;;;0.70;;
5195;SDS011;2617;51.006;12.436;2023-07-13T15:54:58;2.60;;;0.80;;
5195;SDS011;2617;51.006;12.436;2023-07-13T16:00:01;0.90;;;0.57;;
5195;SDS011;2617;51.006;12.436;2023-07-13T16:05:03;1.80;;;0.57;;
5195;SDS011;2617;51.006;12.436;2023-07-13T16:10:07;1.57;;;0.80;;
5195;SDS011;2617;51.006;12.436;2023-07-13T16:15:13;2.77;;;0.80;;
5195;SDS011;2617;51.006;12.436;2023-07-13T16:20:17;0.80;;;0.70;;
5195;SDS011;2617;51.006;12.436;2023-07-13T16:25:21;0.60;;;0.60;;
5195;SDS011;2617;51.006;12.436;2023-07-13T16:30:23;0.70;;;0.70;;
5195;SDS011;2617;51.006;12.436;2023-07-13T16:35:25;0.97;;;0.97;;
5195;SDS011;2617;51.006;12.436;2023-07-13T16:40:27;0.80;;;0.70;;
5195;SDS011;2617;51.006;12.436;2023-07-13T16:45:29;1.53;;;0.70;;
5195;SDS011;2617;51.006;12.436;2023-07-13T16:50:31;1.25;;;1.10;;
5195;SDS011;2617;51.006;12.436;2023-07-13T16:55:32;1.10;;;0.95;;
5195;SDS011;2617;51.006;12.436;2023-07-13T17:00:34;1.90;;;0.80;;
5195;SDS011;2617;51.006;12.436;2023-07-13T17:05:38;1.53;;;0.93;;
5195;SDS011;2617;51.006;12.436;2023-07-13T17:10:39;0.97;;;0.77;;
5195;SDS011;2617;51.006;12.436;2023-07-13T17:15:40;1.10;;;1.00;;
5195;SDS011;2617;51.006;12.436;2023-07-13T17:20:43;0.70;;;0.70;;
5195;SDS011;2617;51.006;12.436;2023-07-13T17:25:45;1.37;;;0.80;;
5195;SDS011;2617;51.006;12.436;2023-07-13T17:30:48;1.57;;;0.93;;
5195;SDS011;2617;51.006;12.436;2023-07-13T17:35:49;2.70;;;1.30;;
5195;SDS011;2617;51.006;12.436;2023-07-13T17:40:50;3.72;;;1.00;;
5195;SDS011;2617;51.006;12.436;2023-07-13T17:45:53;1.00;;;0.90;;
5195;SDS011;2617;51.006;12.436;2023-07-13T17:50:55;3.63;;;1.10;;
5195;SDS011;2617;51.006;12.436;2023-07-13T17:55:56;2.10;;;0.93;;
5195;SDS011;2617;51.006;12.436;2023-07-13T18:00:58;1.60;;;0.87;;
5195;SDS011;2617;51.006;12.436;2023-07-13T18:06:01;0.70;;;0.60;;
5195;SDS011;2617;51.006;12.436;2023-07-13T18:11:02;1.75;;;0.90;;
5195;SDS011;2617;51.006;12.436;2023-07-13T18:16:04;15.03;;;1.43;;
5195;SDS011;2617;51.006;12.436;2023-07-13T18:21:07;1.27;;;0.90;;
5195;SDS011;2617;51.006;12.436;2023-07-13T18:26:09;0.70;;;0.70;;
5195;SDS011;2617;51.006;12.436;2023-07-13T18:31:11;1.83;;;1.10;;
5195;SDS011;2617;51.006;12.436;2023-07-13T18:36:14;2.00;;;1.10;;
5195;SDS011;2617;51.006;12.436;2023-07-13T18:41:16;3.70;;;0.70;;
5195;SDS011;2617;51.006;12.436;2023-07-13T18:46:20;1.03;;;0.93;;
5195;SDS011;2617;51.006;12.436;2023-07-13T18:51:21;1.70;;;1.15;;
5195;SDS011;2617;51.006;12.436;2023-07-13T18:56:23;1.17;;;0.75;;
5195;SDS011;2617;51.006;12.436;2023-07-13T19:01:30;1.07;;;0.73;;
5195;SDS011;2617;51.006;12.436;2023-07-13T19:06:30;1.07;;;0.90;;
5195;SDS011;2617;51.006;12.436;2023-07-13T19:11:32;2.53;;;1.57;;
5195;SDS011;2617;51.006;12.436;2023-07-13T19:16:33;1.20;;;1.00;;
5195;SDS011;2617;51.006;12.436;2023-07-13T19:21:35;1.40;;;1.07;;
5195;SDS011;2617;51.006;12.436;2023-07-13T19:26:38;0.70;;;0.70;;
5195;SDS011;2617;51.006;12.436;2023-07-13T19:31:40;1.33;;;0.93;;
5195;SDS011;2617;51.006;12.436;2023-07-13T19:36:41;1.47;;;1.37;;
5195;SDS011;2617;51.006;12.436;2023-07-13T19:41:43;0.97;;;0.87;;
5195;SDS011;2617;51.006;12.436;2023-07-13T19:46:46;2.73;;;0.90;;
5195;SDS011;2617;51.006;12.436;2023-07-13T19:51:48;1.23;;;0.90;;
5195;SDS011;2617;51.006;12.436;2023-07-13T19:56:49;1.87;;;0.80;;
5195;SDS011;2617;51.006;12.436;2023-07-13T20:01:52;2.13;;;1.10;;
5195;SDS011;2617;51.006;12.436;2023-07-13T20:06:53;1.40;;;1.10;;
5195;SDS011;2617;51.006;12.436;2023-07-13T20:11:55;3.03;;;1.33;;
5195;SDS011;2617;51.006;12.436;2023-07-13T20:16:59;7.07;;;1.55;;
5195;SDS011;2617;51.006;12.436;2023-07-13T20:22:00;4.17;;;1.10;;
5195;SDS011;2617;51.006;12.436;2023-07-13T20:27:01;1.45;;;1.35;;
5195;SDS011;2617;51.006;12.436;2023-07-13T20:32:03;5.80;;;1.90;;
5195;SDS011;2617;51.006;12.436;2023-07-13T20:37:18;2.30;;;1.47;;
5195;SDS011;2617;51.006;12.436;2023-07-13T20:42:15;6.67;;;2.23;;
5195;SDS011;2617;51.006;12.436;2023-07-13T20:47:18;2.37;;;1.40;;
5195;SDS011;2617;51.006;12.436;2023-07-13T20:52:19;3.10;;;1.97;;
5195;SDS011;2617;51.006;12.436;2023-07-13T20:57:21;2.17;;;1.97;;
5195;SDS011;2617;51.006;12.436;2023-07-13T21:02:26;2.72;;;1.50;;
5195;SDS011;2617;51.006;12.436;2023-07-13T21:07:25;2.20;;;1.70;;
5195;SDS011;2617;51.006;12.436;2023-07-13T21:12:27;3.27;;;1.87;;
5195;SDS011;2617;51.006;12.436;2023-07-13T21:17:29;6.43;;;2.10;;
5195;SDS011;2617;51.006;12.436;2023-07-13T21:22:31;2.17;;;1.83;;
5195;SDS011;2617;51.006;12.436;2023-07-13T21:27:32;2.70;;;1.67;;
5195;SDS011;2617;51.006;12.436;2023-07-13T21:32:34;2.62;;;1.65;;
5195;SDS011;2617;51.006;12.436;2023-07-13T21:37:36;7.22;;;2.00;;
5195;SDS011;2617;51.006;12.436;2023-07-13T21:42:38;2.20;;;1.70;;
5195;SDS011;2617;51.006;12.436;2023-07-13T21:47:39;4.77;;;2.20;;
5195;SDS011;2617;51.006;12.436;2023-07-13T21:52:42;1.90;;;1.80;;
5195;SDS011;2617;51.006;12.436;2023-07-13T21:57:47;3.57;;;1.90;;
5195;SDS011;2617;51.006;12.436;2023-07-13T22:02:57;2.03;;;1.80;;
5195;SDS011;2617;51.006;12.436;2023-07-13T22:07:52;5.63;;;2.10;;
5195;SDS011;2617;51.006;12.436;2023-07-13T22:12:54;4.83;;;2.33;;
5195;SDS011;2617;51.006;12.436;2023-07-13T22:17:55;3.20;;;1.90;;
5195;SDS011;2617;51.006;12.436;2023-07-13T22:22:57;2.87;;;1.93;;
5195;SDS011;2617;51.006;12.436;2023-07-13T22:27:59;4.50;;;2.13;;
5195;SDS011;2617;51.006;12.436;2023-07-13T22:33:01;3.20;;;2.07;;
5195;SDS011;2617;51.006;12.436;2023-07-13T22:38:04;8.65;;;2.80;;
5195;SDS011;2617;51.006;12.436;2023-07-13T22:43:09;4.20;;;2.60;;
5195;SDS011;2617;51.006;12.436;2023-07-13T22:48:18;2.90;;;2.17;;
5195;SDS011;2617;51.006;12.436;2023-07-13T22:53:23;2.30;;;2.10;;
5195;SDS011;2617;51.006;12.436;2023-07-13T22:58:25;2.90;;;2.27;;
5195;SDS011;2617;51.006;12.436;2023-07-13T23:03:30;2.53;;;2.20;;
5195;SDS011;2617;51.006;12.436;2023-07-13T23:08:30;2.80;;;2.30;;
5195;SDS011;2617;51.006;12.436;2023-07-13T23:13:32;2.53;;;2.33;;
5195;SDS011;2617;51.006;12.436;2023-07-13T23:18:35;4.18;;;2.25;;
5195;SDS011;2617;51.006;12.436;2023-07-13T23:23:36;2.40;;;2.20;;
5195;SDS011;2617;51.006;12.436;2023-07-13T23:28:41;4.20;;;2.27;;
5195;SDS011;2617;51.006;12.436;2023-07-13T23:33:42;3.20;;;2.80;;
5195;SDS011;2617;51.006;12.436;2023-07-13T23:38:45;4.80;;;2.30;;
5195;SDS011;2617;51.006;12.436;2023-07-13T23:43:47;2.80;;;2.50;;
5195;SDS011;2617;51.006;12.436;2023-07-13T23:48:49;4.70;;;2.73;;
5195;SDS011;2617;51.006;12.436;2023-07-13T23:53:51;5.72;;;2.30;;
5195;SDS011;2617;51.006;12.436;2023-07-13T23:58:52;3.30;;;2.33;;
